sensor_id;sensor_type;location;lat;lon;timestamp;P1;durP1;ratioP1;P2;durP2;ratioP2
59938;SDS011;45801;51.810;19.444;2023-05-19T00:01:46;10.20;;;4.80;;
59938;SDS011;45801;51.810;19.444;2023-05-19T00:04:14;9.10;;;5.30;;
59938;SDS011;45801;51.810;19.444;2023-05-19T00:06:40;8.10;;;4.60;;
59938;SDS011;45801;51.810;19.444;2023-05-19T00:09:08;9.80;;;4.50;;
59938;SDS011;45801;51.810;19.444;2023-05-19T00:11:36;9.30;;;4.60;;
59938;SDS011;45801;51.810;19.444;2023-05-19T00:14:05;9.70;;;5.00;;
59938;SDS011;45801;51.810;19.444;2023-05-19T00:16:33;9.90;;;4.60;;
59938;SDS011;45801;51.810;19.444;2023-05-19T00:19:02;10.20;;;5.30;;
59938;SDS011;45801;51.810;19.444;2023-05-19T00:21:30;9.60;;;5.10;;
59938;SDS011;45801;51.810;19.444;2023-05-19T00:23:57;9.10;;;5.10;;
59938;SDS011;45801;51.810;19.444;2023-05-19T00:26:24;10.50;;;5.60;;
59938;SDS011;45801;51.810;19.444;2023-05-19T00:28:53;8.50;;;5.30;;
59938;SDS011;45801;51.810;19.444;2023-05-19T00:31:19;9.50;;;4.60;;
59938;SDS011;45801;51.810;19.444;2023-05-19T00:33:47;9.70;;;5.40;;
59938;SDS011;45801;51.810;19.444;2023-05-19T00:36:14;8.70;;;4.30;;
59938;SDS011;45801;51.810;19.444;2023-05-19T00:38:40;8.90;;;5.00;;
59938;SDS011;45801;51.810;19.444;2023-05-19T00:41:07;9.40;;;5.00;;
59938;SDS011;45801;51.810;19.444;2023-05-19T00:43:33;8.60;;;5.10;;
59938;SDS011;45801;51.810;19.444;2023-05-19T00:46:00;8.40;;;5.10;;
59938;SDS011;45801;51.810;19.444;2023-05-19T00:48:27;10.20;;;6.20;;
59938;SDS011;45801;51.810;19.444;2023-05-19T00:50:55;10.10;;;4.90;;
59938;SDS011;45801;51.810;19.444;2023-05-19T00:53:27;8.10;;;4.80;;
59938;SDS011;45801;51.810;19.444;2023-05-19T00:55:55;9.80;;;5.90;;
59938;SDS011;45801;51.810;19.444;2023-05-19T00:58:22;10.90;;;6.20;;
59938;SDS011;45801;51.810;19.444;2023-05-19T01:00:57;10.70;;;6.10;;
59938;SDS011;45801;51.810;19.444;2023-05-19T01:03:32;10.50;;;6.50;;
59938;SDS011;45801;51.810;19.444;2023-05-19T01:06:01;9.80;;;6.20;;
59938;SDS011;45801;51.810;19.444;2023-05-19T01:08:32;12.10;;;6.20;;
59938;SDS011;45801;51.810;19.444;2023-05-19T01:11:00;11.40;;;6.20;;
59938;SDS011;45801;51.810;19.444;2023-05-19T01:13:27;10.30;;;5.80;;
59938;SDS011;45801;51.810;19.444;2023-05-19T01:16:03;10.10;;;6.20;;
59938;SDS011;45801;51.810;19.444;2023-05-19T01:33:09;10.20;;;6.00;;
59938;SDS011;45801;51.810;19.444;2023-05-19T01:35:39;9.50;;;6.00;;
59938;SDS011;45801;51.810;19.444;2023-05-19T01:38:08;11.30;;;6.00;;
59938;SDS011;45801;51.810;19.444;2023-05-19T01:40:36;10.20;;;5.70;;
59938;SDS011;45801;51.810;19.444;2023-05-19T01:43:04;9.10;;;5.50;;
59938;SDS011;45801;51.810;19.444;2023-05-19T01:45:34;9.30;;;5.80;;
59938;SDS011;45801;51.810;19.444;2023-05-19T01:48:02;9.90;;;5.50;;
59938;SDS011;45801;51.810;19.444;2023-05-19T01:50:29;10.10;;;5.80;;
59938;SDS011;45801;51.810;19.444;2023-05-19T01:52:57;9.30;;;5.60;;
59938;SDS011;45801;51.810;19.444;2023-05-19T01:55:24;9.70;;;5.60;;
59938;SDS011;45801;51.810;19.444;2023-05-19T02:03:25;10.50;;;6.40;;
59938;SDS011;45801;51.810;19.444;2023-05-19T02:16:58;12.10;;;7.20;;
59938;SDS011;45801;51.810;19.444;2023-05-19T02:19:31;10.40;;;6.30;;
59938;SDS011;45801;51.810;19.444;2023-05-19T02:21:59;11.70;;;7.40;;
59938;SDS011;45801;51.810;19.444;2023-05-19T02:24:25;11.40;;;6.90;;
59938;SDS011;45801;51.810;19.444;2023-05-19T02:26:52;11.00;;;7.00;;
59938;SDS011;45801;51.810;19.444;2023-05-19T02:29:19;10.00;;;6.30;;
59938;SDS011;45801;51.810;19.444;2023-05-19T02:31:46;12.60;;;7.60;;
59938;SDS011;45801;51.810;19.444;2023-05-19T02:34:13;10.90;;;6.70;;
59938;SDS011;45801;51.810;19.444;2023-05-19T02:36:39;11.40;;;7.00;;
59938;SDS011;45801;51.810;19.444;2023-05-19T02:39:10;11.70;;;6.80;;
59938;SDS011;45801;51.810;19.444;2023-05-19T02:41:38;11.70;;;7.30;;
59938;SDS011;45801;51.810;19.444;2023-05-19T02:44:04;10.90;;;6.80;;
59938;SDS011;45801;51.810;19.444;2023-05-19T02:46:31;10.70;;;7.70;;
59938;SDS011;45801;51.810;19.444;2023-05-19T02:48:58;10.40;;;7.80;;
59938;SDS011;45801;51.810;19.444;2023-05-19T02:51:25;11.50;;;7.30;;
59938;SDS011;45801;51.810;19.444;2023-05-19T02:53:51;10.70;;;7.30;;
59938;SDS011;45801;51.810;19.444;2023-05-19T02:56:18;12.20;;;7.20;;
59938;SDS011;45801;51.810;19.444;2023-05-19T02:58:44;13.30;;;7.60;;
59938;SDS011;45801;51.810;19.444;2023-05-19T03:01:11;10.80;;;7.90;;
59938;SDS011;45801;51.810;19.444;2023-05-19T03:03:37;10.90;;;7.40;;
59938;SDS011;45801;51.810;19.444;2023-05-19T03:06:04;12.20;;;7.90;;
59938;SDS011;45801;51.810;19.444;2023-05-19T03:08:34;12.60;;;7.60;;
59938;SDS011;45801;51.810;19.444;2023-05-19T03:11:01;11.80;;;7.90;;
59938;SDS011;45801;51.810;19.444;2023-05-19T03:13:28;11.00;;;7.60;;
59938;SDS011;45801;51.810;19.444;2023-05-19T03:15:55;11.40;;;7.70;;
59938;SDS011;45801;51.810;19.444;2023-05-19T03:18:24;12.20;;;7.70;;
59938;SDS011;45801;51.810;19.444;2023-05-19T03:20:51;12.40;;;7.80;;
59938;SDS011;45801;51.810;19.444;2023-05-19T03:23:21;11.00;;;8.00;;
59938;SDS011;45801;51.810;19.444;2023-05-19T03:25:48;11.10;;;7.30;;
59938;SDS011;45801;51.810;19.444;2023-05-19T03:28:14;12.10;;;7.60;;
59938;SDS011;45801;51.810;19.444;2023-05-19T03:30:42;10.70;;;7.10;;
59938;SDS011;45801;51.810;19.444;2023-05-19T03:33:08;11.80;;;7.10;;
59938;SDS011;45801;51.810;19.444;2023-05-19T03:35:35;11.50;;;8.00;;
59938;SDS011;45801;51.810;19.444;2023-05-19T03:38:01;10.70;;;7.50;;
59938;SDS011;45801;51.810;19.444;2023-05-19T03:40:28;10.30;;;7.90;;
59938;SDS011;45801;51.810;19.444;2023-05-19T03:42:54;13.30;;;8.10;;
59938;SDS011;45801;51.810;19.444;2023-05-19T03:45:20;13.20;;;8.00;;
59938;SDS011;45801;51.810;19.444;2023-05-19T03:47:47;12.70;;;7.20;;
59938;SDS011;45801;51.810;19.444;2023-05-19T03:50:13;11.10;;;7.90;;
59938;SDS011;45801;51.810;19.444;2023-05-19T03:52:41;11.90;;;7.70;;
59938;SDS011;45801;51.810;19.444;2023-05-19T03:55:10;12.30;;;7.20;;
59938;SDS011;45801;51.810;19.444;2023-05-19T03:57:39;11.50;;;7.70;;
59938;SDS011;45801;51.810;19.444;2023-05-19T04:00:09;11.80;;;7.30;;
59938;SDS011;45801;51.810;19.444;2023-05-19T04:02:37;12.40;;;7.30;;
59938;SDS011;45801;51.810;19.444;2023-05-19T04:05:04;12.80;;;7.80;;
59938;SDS011;45801;51.810;19.444;2023-05-19T04:07:31;11.80;;;7.50;;
59938;SDS011;45801;51.810;19.444;2023-05-19T04:09:57;11.30;;;7.50;;
59938;SDS011;45801;51.810;19.444;2023-05-19T04:12:24;12.10;;;7.10;;
59938;SDS011;45801;51.810;19.444;2023-05-19T04:14:50;11.50;;;7.20;;
59938;SDS011;45801;51.810;19.444;2023-05-19T04:17:17;10.50;;;6.70;;
59938;SDS011;45801;51.810;19.444;2023-05-19T04:19:43;9.50;;;6.60;;
59938;SDS011;45801;51.810;19.444;2023-05-19T04:22:10;11.60;;;7.00;;
59938;SDS011;45801;51.810;19.444;2023-05-19T04:24:36;12.00;;;6.90;;
59938;SDS011;45801;51.810;19.444;2023-05-19T04:27:03;10.80;;;6.30;;
59938;SDS011;45801;51.810;19.444;2023-05-19T04:29:30;10.60;;;7.00;;
59938;SDS011;45801;51.810;19.444;2023-05-19T04:31:57;9.10;;;6.10;;
59938;SDS011;45801;51.810;19.444;2023-05-19T04:34:24;11.00;;;7.20;;
59938;SDS011;45801;51.810;19.444;2023-05-19T04:36:50;10.00;;;6.60;;
59938;SDS011;45801;51.810;19.444;2023-05-19T04:39:17;11.10;;;6.30;;
59938;SDS011;45801;51.810;19.444;2023-05-19T04:41:43;9.90;;;6.40;;
59938;SDS011;45801;51.810;19.444;2023-05-19T04:44:10;11.20;;;6.90;;
59938;SDS011;45801;51.810;19.444;2023-05-19T04:46:38;9.80;;;5.80;;
59938;SDS011;45801;51.810;19.444;2023-05-19T04:49:05;8.70;;;5.20;;
59938;SDS011;45801;51.810;19.444;2023-05-19T04:51:32;11.10;;;5.70;;
59938;SDS011;45801;51.810;19.444;2023-05-19T04:53:59;9.10;;;4.70;;
59938;SDS011;45801;51.810;19.444;2023-05-19T04:56:26;9.30;;;5.60;;
59938;SDS011;45801;51.810;19.444;2023-05-19T04:58:54;9.80;;;5.40;;
59938;SDS011;45801;51.810;19.444;2023-05-19T05:01:21;9.30;;;5.20;;
59938;SDS011;45801;51.810;19.444;2023-05-19T05:03:51;8.40;;;4.70;;
59938;SDS011;45801;51.810;19.444;2023-05-19T05:06:21;8.80;;;4.70;;
59938;SDS011;45801;51.810;19.444;2023-05-19T05:08:49;9.40;;;4.80;;
59938;SDS011;45801;51.810;19.444;2023-05-19T05:11:16;9.60;;;5.00;;
59938;SDS011;45801;51.810;19.444;2023-05-19T05:13:43;8.70;;;4.80;;
59938;SDS011;45801;51.810;19.444;2023-05-19T05:16:09;8.50;;;5.00;;
59938;SDS011;45801;51.810;19.444;2023-05-19T05:18:37;9.50;;;5.50;;
59938;SDS011;45801;51.810;19.444;2023-05-19T05:21:04;8.60;;;5.00;;
59938;SDS011;45801;51.810;19.444;2023-05-19T05:23:32;9.40;;;4.80;;
59938;SDS011;45801;51.810;19.444;2023-05-19T05:25:58;9.10;;;5.00;;
59938;SDS011;45801;51.810;19.444;2023-05-19T05:28:34;8.90;;;4.80;;
59938;SDS011;45801;51.810;19.444;2023-05-19T05:31:01;9.00;;;5.10;;
59938;SDS011;45801;51.810;19.444;2023-05-19T05:33:27;10.10;;;5.20;;
59938;SDS011;45801;51.810;19.444;2023-05-19T05:35:54;9.10;;;4.60;;
59938;SDS011;45801;51.810;19.444;2023-05-19T05:38:20;10.60;;;5.10;;
59938;SDS011;45801;51.810;19.444;2023-05-19T05:40:47;10.70;;;5.40;;
59938;SDS011;45801;51.810;19.444;2023-05-19T05:43:13;9.70;;;4.90;;
59938;SDS011;45801;51.810;19.444;2023-05-19T05:45:40;8.50;;;4.60;;
59938;SDS011;45801;51.810;19.444;2023-05-19T05:48:06;9.30;;;5.10;;
59938;SDS011;45801;51.810;19.444;2023-05-19T05:50:33;8.40;;;4.30;;
59938;SDS011;45801;51.810;19.444;2023-05-19T05:53:00;10.40;;;4.20;;
59938;SDS011;45801;51.810;19.444;2023-05-19T05:55:28;8.10;;;4.20;;
59938;SDS011;45801;51.810;19.444;2023-05-19T05:57:54;8.90;;;4.10;;
59938;SDS011;45801;51.810;19.444;2023-05-19T06:00:22;8.90;;;3.80;;
59938;SDS011;45801;51.810;19.444;2023-05-19T06:02:49;7.30;;;3.70;;
59938;SDS011;45801;51.810;19.444;2023-05-19T06:05:17;8.10;;;3.90;;
59938;SDS011;45801;51.810;19.444;2023-05-19T06:07:43;7.60;;;3.60;;
59938;SDS011;45801;51.810;19.444;2023-05-19T06:10:11;8.50;;;3.80;;
59938;SDS011;45801;51.810;19.444;2023-05-19T06:12:38;7.80;;;3.90;;
59938;SDS011;45801;51.810;19.444;2023-05-19T06:15:08;8.50;;;3.90;;
59938;SDS011;45801;51.810;19.444;2023-05-19T06:17:35;9.10;;;4.00;;
59938;SDS011;45801;51.810;19.444;2023-05-19T06:20:02;8.80;;;3.50;;
59938;SDS011;45801;51.810;19.444;2023-05-19T06:22:33;6.70;;;3.00;;
59938;SDS011;45801;51.810;19.444;2023-05-19T06:25:00;7.80;;;3.40;;
59938;SDS011;45801;51.810;19.444;2023-05-19T06:27:26;6.50;;;3.10;;
59938;SDS011;45801;51.810;19.444;2023-05-19T06:29:52;7.30;;;3.20;;
59938;SDS011;45801;51.810;19.444;2023-05-19T06:32:20;7.50;;;3.30;;
59938;SDS011;45801;51.810;19.444;2023-05-19T06:34:46;7.20;;;3.30;;
59938;SDS011;45801;51.810;19.444;2023-05-19T06:37:20;7.70;;;3.20;;
59938;SDS011;45801;51.810;19.444;2023-05-19T06:39:48;7.60;;;3.00;;
59938;SDS011;45801;51.810;19.444;2023-05-19T06:42:17;6.60;;;3.10;;
59938;SDS011;45801;51.810;19.444;2023-05-19T06:44:48;8.00;;;3.30;;
59938;SDS011;45801;51.810;19.444;2023-05-19T06:47:15;7.00;;;3.10;;
59938;SDS011;45801;51.810;19.444;2023-05-19T06:49:45;7.20;;;3.40;;
59938;SDS011;45801;51.810;19.444;2023-05-19T06:52:15;8.20;;;3.70;;
59938;SDS011;45801;51.810;19.444;2023-05-19T06:54:42;9.60;;;4.30;;
59938;SDS011;45801;51.810;19.444;2023-05-19T06:57:09;7.70;;;3.30;;
59938;SDS011;45801;51.810;19.444;2023-05-19T06:59:35;8.30;;;3.50;;
59938;SDS011;45801;51.810;19.444;2023-05-19T07:02:02;10.00;;;3.70;;
59938;SDS011;45801;51.810;19.444;2023-05-19T07:04:29;7.40;;;3.70;;
59938;SDS011;45801;51.810;19.444;2023-05-19T07:06:56;7.80;;;3.60;;
59938;SDS011;45801;51.810;19.444;2023-05-19T07:09:22;8.50;;;3.80;;
59938;SDS011;45801;51.810;19.444;2023-05-19T07:14:37;6.90;;;3.30;;
59938;SDS011;45801;51.810;19.444;2023-05-19T07:17:04;6.60;;;3.20;;
59938;SDS011;45801;51.810;19.444;2023-05-19T07:19:30;8.00;;;3.30;;
59938;SDS011;45801;51.810;19.444;2023-05-19T07:21:56;6.10;;;2.90;;
59938;SDS011;45801;51.810;19.444;2023-05-19T07:24:24;8.80;;;3.40;;
59938;SDS011;45801;51.810;19.444;2023-05-19T07:26:52;7.10;;;3.30;;
59938;SDS011;45801;51.810;19.444;2023-05-19T07:29:19;6.60;;;3.00;;
59938;SDS011;45801;51.810;19.444;2023-05-19T07:31:45;7.50;;;2.80;;
59938;SDS011;45801;51.810;19.444;2023-05-19T07:34:11;6.60;;;3.10;;
59938;SDS011;45801;51.810;19.444;2023-05-19T07:36:38;7.90;;;2.80;;
59938;SDS011;45801;51.810;19.444;2023-05-19T07:39:04;7.60;;;3.10;;
59938;SDS011;45801;51.810;19.444;2023-05-19T07:41:31;6.30;;;2.70;;
59938;SDS011;45801;51.810;19.444;2023-05-19T07:43:57;7.50;;;3.20;;
59938;SDS011;45801;51.810;19.444;2023-05-19T07:46:24;7.70;;;3.00;;
59938;SDS011;45801;51.810;19.444;2023-05-19T07:48:50;6.40;;;2.70;;
59938;SDS011;45801;51.810;19.444;2023-05-19T07:51:16;8.90;;;3.10;;
59938;SDS011;45801;51.810;19.444;2023-05-19T07:53:44;6.60;;;2.90;;
59938;SDS011;45801;51.810;19.444;2023-05-19T07:56:12;6.10;;;2.70;;
59938;SDS011;45801;51.810;19.444;2023-05-19T07:58:38;7.20;;;2.90;;
59938;SDS011;45801;51.810;19.444;2023-05-19T08:01:05;6.80;;;2.70;;
59938;SDS011;45801;51.810;19.444;2023-05-19T08:03:31;6.40;;;3.10;;
59938;SDS011;45801;51.810;19.444;2023-05-19T08:05:58;6.30;;;2.90;;
59938;SDS011;45801;51.810;19.444;2023-05-19T08:08:24;6.60;;;2.60;;
59938;SDS011;45801;51.810;19.444;2023-05-19T08:10:51;6.50;;;2.50;;
59938;SDS011;45801;51.810;19.444;2023-05-19T08:13:18;8.70;;;2.70;;
59938;SDS011;45801;51.810;19.444;2023-05-19T08:15:44;5.90;;;2.30;;
59938;SDS011;45801;51.810;19.444;2023-05-19T08:18:23;5.70;;;2.20;;
59938;SDS011;45801;51.810;19.444;2023-05-19T08:20:49;7.50;;;2.70;;
59938;SDS011;45801;51.810;19.444;2023-05-19T08:23:16;7.30;;;2.70;;
59938;SDS011;45801;51.810;19.444;2023-05-19T08:25:42;6.80;;;3.20;;
59938;SDS011;45801;51.810;19.444;2023-05-19T08:28:09;6.20;;;2.80;;
59938;SDS011;45801;51.810;19.444;2023-05-19T08:30:36;7.30;;;2.50;;
59938;SDS011;45801;51.810;19.444;2023-05-19T08:33:03;5.80;;;2.30;;
59938;SDS011;45801;51.810;19.444;2023-05-19T08:35:29;7.40;;;2.80;;
59938;SDS011;45801;51.810;19.444;2023-05-19T08:37:55;6.30;;;2.90;;
59938;SDS011;45801;51.810;19.444;2023-05-19T08:40:28;6.70;;;2.70;;
59938;SDS011;45801;51.810;19.444;2023-05-19T08:42:56;7.10;;;3.50;;
59938;SDS011;45801;51.810;19.444;2023-05-19T08:45:23;6.40;;;2.80;;
59938;SDS011;45801;51.810;19.444;2023-05-19T08:47:49;8.00;;;3.00;;
59938;SDS011;45801;51.810;19.444;2023-05-19T08:50:20;7.50;;;2.90;;
59938;SDS011;45801;51.810;19.444;2023-05-19T08:52:50;6.70;;;2.70;;
59938;SDS011;45801;51.810;19.444;2023-05-19T08:55:24;6.80;;;2.90;;
59938;SDS011;45801;51.810;19.444;2023-05-19T08:57:59;6.40;;;2.90;;
59938;SDS011;45801;51.810;19.444;2023-05-19T09:00:28;7.10;;;3.10;;
59938;SDS011;45801;51.810;19.444;2023-05-19T09:02:55;8.20;;;3.10;;
59938;SDS011;45801;51.810;19.444;2023-05-19T09:05:22;8.10;;;2.90;;
59938;SDS011;45801;51.810;19.444;2023-05-19T09:07:49;9.20;;;3.20;;
59938;SDS011;45801;51.810;19.444;2023-05-19T09:10:15;6.70;;;2.90;;
59938;SDS011;45801;51.810;19.444;2023-05-19T09:12:43;6.70;;;2.90;;
59938;SDS011;45801;51.810;19.444;2023-05-19T09:15:11;7.80;;;3.10;;
59938;SDS011;45801;51.810;19.444;2023-05-19T09:17:41;7.60;;;2.80;;
59938;SDS011;45801;51.810;19.444;2023-05-19T09:20:09;7.30;;;3.00;;
59938;SDS011;45801;51.810;19.444;2023-05-19T09:22:40;6.80;;;2.90;;
59938;SDS011;45801;51.810;19.444;2023-05-19T09:28:11;7.10;;;2.80;;
59938;SDS011;45801;51.810;19.444;2023-05-19T09:30:37;9.50;;;3.30;;
59938;SDS011;45801;51.810;19.444;2023-05-19T09:33:04;7.10;;;3.30;;
59938;SDS011;45801;51.810;19.444;2023-05-19T09:35:35;7.90;;;3.20;;
59938;SDS011;45801;51.810;19.444;2023-05-19T09:38:02;8.30;;;3.80;;
59938;SDS011;45801;51.810;19.444;2023-05-19T09:40:28;9.30;;;3.40;;
59938;SDS011;45801;51.810;19.444;2023-05-19T09:42:55;7.60;;;3.30;;
59938;SDS011;45801;51.810;19.444;2023-05-19T09:45:22;8.10;;;3.40;;
59938;SDS011;45801;51.810;19.444;2023-05-19T09:47:48;8.00;;;3.30;;
59938;SDS011;45801;51.810;19.444;2023-05-19T09:50:15;9.30;;;3.60;;
59938;SDS011;45801;51.810;19.444;2023-05-19T09:52:42;8.40;;;3.20;;
59938;SDS011;45801;51.810;19.444;2023-05-19T09:55:10;8.70;;;3.40;;
59938;SDS011;45801;51.810;19.444;2023-05-19T09:57:38;8.20;;;4.20;;
59938;SDS011;45801;51.810;19.444;2023-05-19T10:00:06;8.70;;;3.80;;
59938;SDS011;45801;51.810;19.444;2023-05-19T10:02:40;7.50;;;4.30;;
59938;SDS011;45801;51.810;19.444;2023-05-19T10:05:15;7.60;;;4.10;;
59938;SDS011;45801;51.810;19.444;2023-05-19T10:07:45;7.50;;;4.00;;
59938;SDS011;45801;51.810;19.444;2023-05-19T10:10:14;8.30;;;4.00;;
59938;SDS011;45801;51.810;19.444;2023-05-19T10:12:40;8.00;;;4.60;;
59938;SDS011;45801;51.810;19.444;2023-05-19T10:15:11;7.80;;;4.40;;
59938;SDS011;45801;51.810;19.444;2023-05-19T10:17:41;8.20;;;4.30;;
59938;SDS011;45801;51.810;19.444;2023-05-19T10:20:10;7.70;;;4.40;;
59938;SDS011;45801;51.810;19.444;2023-05-19T10:22:41;9.80;;;4.80;;
59938;SDS011;45801;51.810;19.444;2023-05-19T10:25:09;9.50;;;5.30;;
59938;SDS011;45801;51.810;19.444;2023-05-19T10:27:38;10.90;;;5.60;;
59938;SDS011;45801;51.810;19.444;2023-05-19T10:30:14;8.80;;;5.30;;
59938;SDS011;45801;51.810;19.444;2023-05-19T10:32:45;9.00;;;5.10;;
59938;SDS011;45801;51.810;19.444;2023-05-19T10:38:09;8.80;;;4.90;;
59938;SDS011;45801;51.810;19.444;2023-05-19T10:44:00;9.30;;;4.90;;
59938;SDS011;45801;51.810;19.444;2023-05-19T10:46:34;9.30;;;4.40;;
59938;SDS011;45801;51.810;19.444;2023-05-19T10:49:01;8.30;;;4.60;;
59938;SDS011;45801;51.810;19.444;2023-05-19T10:51:29;8.20;;;4.90;;
59938;SDS011;45801;51.810;19.444;2023-05-19T10:53:56;8.80;;;4.90;;
59938;SDS011;45801;51.810;19.444;2023-05-19T10:56:27;10.30;;;6.10;;
59938;SDS011;45801;51.810;19.444;2023-05-19T10:59:00;9.20;;;6.20;;
59938;SDS011;45801;51.810;19.444;2023-05-19T11:01:31;10.90;;;5.90;;
59938;SDS011;45801;51.810;19.444;2023-05-19T11:04:05;8.50;;;5.20;;
59938;SDS011;45801;51.810;19.444;2023-05-19T11:06:34;10.40;;;6.00;;
59938;SDS011;45801;51.810;19.444;2023-05-19T11:09:08;9.90;;;5.70;;
59938;SDS011;45801;51.810;19.444;2023-05-19T11:11:48;9.00;;;5.70;;
59938;SDS011;45801;51.810;19.444;2023-05-19T11:14:17;11.30;;;6.60;;
59938;SDS011;45801;51.810;19.444;2023-05-19T11:16:45;9.60;;;5.90;;
59938;SDS011;45801;51.810;19.444;2023-05-19T11:19:29;10.00;;;6.00;;
59938;SDS011;45801;51.810;19.444;2023-05-19T11:22:21;10.30;;;6.10;;
59938;SDS011;45801;51.810;19.444;2023-05-19T11:24:47;10.80;;;6.50;;
59938;SDS011;45801;51.810;19.444;2023-05-19T11:29:51;10.90;;;6.90;;
59938;SDS011;45801;51.810;19.444;2023-05-19T11:32:20;11.60;;;6.80;;
59938;SDS011;45801;51.810;19.444;2023-05-19T11:34:47;11.40;;;7.10;;
59938;SDS011;45801;51.810;19.444;2023-05-19T11:37:15;12.40;;;7.10;;
59938;SDS011;45801;51.810;19.444;2023-05-19T11:39:41;10.20;;;6.70;;
59938;SDS011;45801;51.810;19.444;2023-05-19T11:42:08;10.40;;;6.80;;
59938;SDS011;45801;51.810;19.444;2023-05-19T11:44:36;11.50;;;7.90;;
59938;SDS011;45801;51.810;19.444;2023-05-19T11:47:04;13.10;;;7.70;;
59938;SDS011;45801;51.810;19.444;2023-05-19T11:49:31;10.70;;;7.30;;
59938;SDS011;45801;51.810;19.444;2023-05-19T11:52:01;11.90;;;8.20;;
59938;SDS011;45801;51.810;19.444;2023-05-19T11:54:32;12.20;;;7.80;;
59938;SDS011;45801;51.810;19.444;2023-05-19T11:57:04;11.00;;;7.30;;
59938;SDS011;45801;51.810;19.444;2023-05-19T11:59:31;12.00;;;7.40;;
59938;SDS011;45801;51.810;19.444;2023-05-19T12:02:00;12.00;;;8.20;;
59938;SDS011;45801;51.810;19.444;2023-05-19T12:04:41;11.40;;;7.00;;
59938;SDS011;45801;51.810;19.444;2023-05-19T12:07:09;12.00;;;7.10;;
59938;SDS011;45801;51.810;19.444;2023-05-19T12:09:37;10.20;;;6.60;;
59938;SDS011;45801;51.810;19.444;2023-05-19T12:12:03;10.80;;;6.50;;
59938;SDS011;45801;51.810;19.444;2023-05-19T12:14:30;11.00;;;7.00;;
59938;SDS011;45801;51.810;19.444;2023-05-19T12:16:57;11.30;;;6.70;;
59938;SDS011;45801;51.810;19.444;2023-05-19T12:19:24;10.90;;;6.30;;
59938;SDS011;45801;51.810;19.444;2023-05-19T12:21:52;11.50;;;7.10;;
59938;SDS011;45801;51.810;19.444;2023-05-19T12:24:19;14.30;;;7.40;;
59938;SDS011;45801;51.810;19.444;2023-05-19T12:26:45;12.80;;;7.40;;
59938;SDS011;45801;51.810;19.444;2023-05-19T12:29:12;12.60;;;7.10;;
59938;SDS011;45801;51.810;19.444;2023-05-19T12:31:39;11.10;;;7.50;;
59938;SDS011;45801;51.810;19.444;2023-05-19T12:34:05;11.10;;;7.00;;
59938;SDS011;45801;51.810;19.444;2023-05-19T12:36:32;13.40;;;7.50;;
59938;SDS011;45801;51.810;19.444;2023-05-19T12:38:58;10.70;;;7.20;;
59938;SDS011;45801;51.810;19.444;2023-05-19T12:41:25;10.60;;;7.60;;
59938;SDS011;45801;51.810;19.444;2023-05-19T12:43:55;11.00;;;7.00;;
59938;SDS011;45801;51.810;19.444;2023-05-19T12:46:21;11.20;;;8.30;;
59938;SDS011;45801;51.810;19.444;2023-05-19T12:48:48;13.00;;;8.10;;
59938;SDS011;45801;51.810;19.444;2023-05-19T12:51:15;12.40;;;7.90;;
59938;SDS011;45801;51.810;19.444;2023-05-19T12:53:43;13.70;;;8.70;;
59938;SDS011;45801;51.810;19.444;2023-05-19T12:56:10;13.60;;;7.90;;
59938;SDS011;45801;51.810;19.444;2023-05-19T12:58:39;12.50;;;7.80;;
59938;SDS011;45801;51.810;19.444;2023-05-19T13:01:06;14.00;;;8.70;;
59938;SDS011;45801;51.810;19.444;2023-05-19T13:03:40;14.70;;;8.70;;
59938;SDS011;45801;51.810;19.444;2023-05-19T13:06:08;12.80;;;8.10;;
59938;SDS011;45801;51.810;19.444;2023-05-19T13:08:36;12.80;;;8.20;;
59938;SDS011;45801;51.810;19.444;2023-05-19T13:11:06;11.50;;;8.50;;
59938;SDS011;45801;51.810;19.444;2023-05-19T13:13:33;14.90;;;8.80;;
59938;SDS011;45801;51.810;19.444;2023-05-19T13:15:59;12.90;;;8.80;;
59938;SDS011;45801;51.810;19.444;2023-05-19T13:18:28;13.40;;;8.90;;
59938;SDS011;45801;51.810;19.444;2023-05-19T13:20:57;13.20;;;8.60;;
59938;SDS011;45801;51.810;19.444;2023-05-19T13:23:23;13.40;;;9.00;;
59938;SDS011;45801;51.810;19.444;2023-05-19T13:25:51;11.50;;;8.40;;
59938;SDS011;45801;51.810;19.444;2023-05-19T13:28:19;13.80;;;9.10;;
59938;SDS011;45801;51.810;19.444;2023-05-19T13:30:45;14.20;;;8.90;;
59938;SDS011;45801;51.810;19.444;2023-05-19T13:33:12;12.00;;;8.30;;
59938;SDS011;45801;51.810;19.444;2023-05-19T13:35:38;13.30;;;8.90;;
59938;SDS011;45801;51.810;19.444;2023-05-19T13:38:05;14.70;;;9.30;;
59938;SDS011;45801;51.810;19.444;2023-05-19T13:40:34;14.20;;;8.90;;
59938;SDS011;45801;51.810;19.444;2023-05-19T13:43:02;15.00;;;9.00;;
59938;SDS011;45801;51.810;19.444;2023-05-19T13:45:29;14.80;;;9.40;;
59938;SDS011;45801;51.810;19.444;2023-05-19T13:47:55;14.60;;;9.50;;
59938;SDS011;45801;51.810;19.444;2023-05-19T13:50:22;14.70;;;9.00;;
59938;SDS011;45801;51.810;19.444;2023-05-19T13:52:49;14.10;;;9.20;;
59938;SDS011;45801;51.810;19.444;2023-05-19T13:55:15;17.20;;;10.10;;
59938;SDS011;45801;51.810;19.444;2023-05-19T13:57:41;17.20;;;10.50;;
59938;SDS011;45801;51.810;19.444;2023-05-19T14:00:08;14.80;;;9.90;;
59938;SDS011;45801;51.810;19.444;2023-05-19T14:02:36;15.40;;;10.40;;
59938;SDS011;45801;51.810;19.444;2023-05-19T14:05:03;15.50;;;10.10;;
59938;SDS011;45801;51.810;19.444;2023-05-19T14:07:31;16.30;;;9.70;;
59938;SDS011;45801;51.810;19.444;2023-05-19T14:10:00;21.50;;;14.40;;
59938;SDS011;45801;51.810;19.444;2023-05-19T14:12:28;15.80;;;10.60;;
59938;SDS011;45801;51.810;19.444;2023-05-19T14:14:55;15.10;;;9.90;;
59938;SDS011;45801;51.810;19.444;2023-05-19T14:17:21;15.80;;;10.30;;
59938;SDS011;45801;51.810;19.444;2023-05-19T14:19:48;11.10;;;6.00;;
59938;SDS011;45801;51.810;19.444;2023-05-19T14:22:14;16.60;;;9.20;;
59938;SDS011;45801;51.810;19.444;2023-05-19T14:24:41;14.80;;;7.80;;
59938;SDS011;45801;51.810;19.444;2023-05-19T14:27:07;14.20;;;8.50;;
59938;SDS011;45801;51.810;19.444;2023-05-19T14:29:34;13.90;;;10.50;;
59938;SDS011;45801;51.810;19.444;2023-05-19T14:32:00;15.70;;;10.60;;
59938;SDS011;45801;51.810;19.444;2023-05-19T14:34:28;20.00;;;12.70;;
59938;SDS011;45801;51.810;19.444;2023-05-19T14:36:54;16.20;;;9.90;;
59938;SDS011;45801;51.810;19.444;2023-05-19T14:39:20;15.00;;;9.20;;
59938;SDS011;45801;51.810;19.444;2023-05-19T14:41:47;15.00;;;10.10;;
59938;SDS011;45801;51.810;19.444;2023-05-19T14:44:16;13.10;;;8.30;;
59938;SDS011;45801;51.810;19.444;2023-05-19T14:46:42;12.90;;;8.00;;
59938;SDS011;45801;51.810;19.444;2023-05-19T14:49:09;14.30;;;8.90;;
59938;SDS011;45801;51.810;19.444;2023-05-19T14:51:35;15.50;;;8.90;;
59938;SDS011;45801;51.810;19.444;2023-05-19T14:54:02;13.60;;;9.10;;
59938;SDS011;45801;51.810;19.444;2023-05-19T14:56:28;14.30;;;8.80;;
59938;SDS011;45801;51.810;19.444;2023-05-19T14:58:55;14.90;;;8.90;;
59938;SDS011;45801;51.810;19.444;2023-05-19T15:01:21;15.70;;;10.00;;
59938;SDS011;45801;51.810;19.444;2023-05-19T15:03:48;14.00;;;9.30;;
59938;SDS011;45801;51.810;19.444;2023-05-19T15:06:14;14.70;;;9.40;;
59938;SDS011;45801;51.810;19.444;2023-05-19T15:08:41;16.20;;;9.80;;
59938;SDS011;45801;51.810;19.444;2023-05-19T15:11:07;15.50;;;10.10;;
59938;SDS011;45801;51.810;19.444;2023-05-19T15:13:34;15.40;;;10.30;;
59938;SDS011;45801;51.810;19.444;2023-05-19T15:16:00;14.10;;;9.30;;
59938;SDS011;45801;51.810;19.444;2023-05-19T15:18:27;14.40;;;9.60;;